sensor_id;sensor_type;location;lat;lon;timestamp;temperature;humidity
72650;SHT31;61467;50.674;4.618;2023-12-07T00:01:41;4.34;84.13
72650;SHT31;61467;50.674;4.618;2023-12-07T00:04:07;4.37;84.25
72650;SHT31;61467;50.674;4.618;2023-12-07T00:06:34;4.42;84.05
72650;SHT31;61467;50.674;4.618;2023-12-07T00:09:01;4.45;84.08
72650;SHT31;61467;50.674;4.618;2023-12-07T00:11:29;4.55;83.46
72650;SHT31;61467;50.674;4.618;2023-12-07T00:13:56;4.37;83.64
72650;SHT31;61467;50.674;4.618;2023-12-07T00:16:23;4.32;84.03
72650;SHT31;61467;50.674;4.618;2023-12-07T00:18:49;4.32;84.62
72650;SHT31;61467;50.674;4.618;2023-12-07T00:21:16;4.44;84.49
72650;SHT31;61467;50.674;4.618;2023-12-07T00:23:43;4.45;84.13
72650;SHT31;61467;50.674;4.618;2023-12-07T00:26:10;4.40;83.94
72650;SHT31;61467;50.674;4.618;2023-12-07T00:28:38;4.24;84.71
72650;SHT31;61467;50.674;4.618;2023-12-07T00:31:05;4.20;84.73
72650;SHT31;61467;50.674;4.618;2023-12-07T00:33:33;4.35;84.91
72650;SHT31;61467;50.674;4.618;2023-12-07T00:36:00;4.14;84.81
72650;SHT31;61467;50.674;4.618;2023-12-07T00:38:27;4.37;84.50
72650;SHT31;61467;50.674;4.618;2023-12-07T00:40:54;4.42;84.14
72650;SHT31;61467;50.674;4.618;2023-12-07T00:43:20;4.34;84.26
72650;SHT31;61467;50.674;4.618;2023-12-07T00:45:49;4.61;84.19
72650;SHT31;61467;50.674;4.618;2023-12-07T00:48:16;4.65;83.69
72650;SHT31;61467;50.674;4.618;2023-12-07T00:50:42;4.71;83.43
72650;SHT31;61467;50.674;4.618;2023-12-07T00:53:09;4.84;82.83
72650;SHT31;61467;50.674;4.618;2023-12-07T00:55:36;4.73;82.81
72650;SHT31;61467;50.674;4.618;2023-12-07T00:58:03;4.66;82.88
72650;SHT31;61467;50.674;4.618;2023-12-07T01:00:29;4.66;82.62
72650;SHT31;61467;50.674;4.618;2023-12-07T01:02:58;4.72;82.41
72650;SHT31;61467;50.674;4.618;2023-12-07T01:05:25;4.62;82.40
72650;SHT31;61467;50.674;4.618;2023-12-07T01:07:51;4.68;82.35
72650;SHT31;61467;50.674;4.618;2023-12-07T01:10:18;4.53;82.66
72650;SHT31;61467;50.674;4.618;2023-12-07T01:12:45;4.41;82.44
72650;SHT31;61467;50.674;4.618;2023-12-07T01:15:12;4.59;82.15
72650;SHT31;61467;50.674;4.618;2023-12-07T01:17:39;4.55;82.15
72650;SHT31;61467;50.674;4.618;2023-12-07T01:20:08;4.44;82.10
72650;SHT31;61467;50.674;4.618;2023-12-07T01:22:39;4.35;82.39
72650;SHT31;61467;50.674;4.618;2023-12-07T01:25:07;4.40;82.66
72650;SHT31;61467;50.674;4.618;2023-12-07T01:27:35;4.28;82.21
72650;SHT31;61467;50.674;4.618;2023-12-07T01:30:02;4.17;82.74
72650;SHT31;61467;50.674;4.618;2023-12-07T01:32:30;4.38;82.55
72650;SHT31;61467;50.674;4.618;2023-12-07T01:34:58;4.37;82.50
72650;SHT31;61467;50.674;4.618;2023-12-07T01:37:26;4.37;82.26
72650;SHT31;61467;50.674;4.618;2023-12-07T01:39:54;4.31;82.70
72650;SHT31;61467;50.674;4.618;2023-12-07T01:42:21;4.52;82.27
72650;SHT31;61467;50.674;4.618;2023-12-07T01:44:48;4.52;82.20
72650;SHT31;61467;50.674;4.618;2023-12-07T01:47:15;4.65;81.70
72650;SHT31;61467;50.674;4.618;2023-12-07T01:49:42;4.69;81.29
72650;SHT31;61467;50.674;4.618;2023-12-07T01:52:09;4.72;81.31
72650;SHT31;61467;50.674;4.618;2023-12-07T01:54:38;4.72;81.07
72650;SHT31;61467;50.674;4.618;2023-12-07T01:57:05;4.68;81.70
72650;SHT31;61467;50.674;4.618;2023-12-07T01:59:33;4.61;81.23
72650;SHT31;61467;50.674;4.618;2023-12-07T02:02:00;4.63;81.27
72650;SHT31;61467;50.674;4.618;2023-12-07T02:04:27;4.73;81.50
72650;SHT31;61467;50.674;4.618;2023-12-07T02:06:57;4.80;80.66
72650;SHT31;61467;50.674;4.618;2023-12-07T02:09:24;4.82;80.67
72650;SHT31;61467;50.674;4.618;2023-12-07T02:11:52;4.71;81.21
72650;SHT31;61467;50.674;4.618;2023-12-07T02:14:19;4.75;80.95
72650;SHT31;61467;50.674;4.618;2023-12-07T02:16:50;4.79;81.11
72650;SHT31;61467;50.674;4.618;2023-12-07T02:22:17;4.63;81.16
72650;SHT31;61467;50.674;4.618;2023-12-07T02:24:55;4.76;81.18
72650;SHT31;61467;50.674;4.618;2023-12-07T02:27:37;4.66;81.26
72650;SHT31;61467;50.674;4.618;2023-12-07T02:30:06;4.75;81.03
72650;SHT31;61467;50.674;4.618;2023-12-07T02:32:34;4.65;81.69
72650;SHT31;61467;50.674;4.618;2023-12-07T02:35:03;4.72;81.20
72650;SHT31;61467;50.674;4.618;2023-12-07T02:37:33;4.62;81.36
72650;SHT31;61467;50.674;4.618;2023-12-07T02:40:04;4.68;81.16
72650;SHT31;61467;50.674;4.618;2023-12-07T02:42:37;4.55;81.25
72650;SHT31;61467;50.674;4.618;2023-12-07T02:45:07;4.71;80.95
72650;SHT31;61467;50.674;4.618;2023-12-07T02:47:36;4.69;80.96
72650;SHT31;61467;50.674;4.618;2023-12-07T02:50:05;4.69;80.78
72650;SHT31;61467;50.674;4.618;2023-12-07T02:52:34;4.58;81.20
72650;SHT31;61467;50.674;4.618;2023-12-07T02:55:02;4.58;81.17
72650;SHT31;61467;50.674;4.618;2023-12-07T02:57:30;4.37;81.48
72650;SHT31;61467;50.674;4.618;2023-12-07T03:00:00;4.45;81.58
72650;SHT31;61467;50.674;4.618;2023-12-07T03:02:32;4.37;81.34
72650;SHT31;61467;50.674;4.618;2023-12-07T03:04:59;4.37;81.85
72650;SHT31;61467;50.674;4.618;2023-12-07T03:07:26;4.34;81.84
72650;SHT31;61467;50.674;4.618;2023-12-07T03:09:53;4.38;81.39
72650;SHT31;61467;50.674;4.618;2023-12-07T03:12:20;4.22;81.82
72650;SHT31;61467;50.674;4.618;2023-12-07T03:14:48;4.41;81.54
72650;SHT31;61467;50.674;4.618;2023-12-07T03:17:16;4.48;81.11
72650;SHT31;61467;50.674;4.618;2023-12-07T03:19:44;4.41;81.32
72650;SHT31;61467;50.674;4.618;2023-12-07T03:22:11;4.40;81.84
72650;SHT31;61467;50.674;4.618;2023-12-07T03:24:39;4.34;81.43
72650;SHT31;61467;50.674;4.618;2023-12-07T03:27:06;4.32;81.51
72650;SHT31;61467;50.674;4.618;2023-12-07T03:29:33;4.27;81.14
72650;SHT31;61467;50.674;4.618;2023-12-07T03:32:00;4.37;80.94
72650;SHT31;61467;50.674;4.618;2023-12-07T03:34:28;4.37;81.25
72650;SHT31;61467;50.674;4.618;2023-12-07T03:36:55;4.34;81.38
72650;SHT31;61467;50.674;4.618;2023-12-07T03:39:21;4.41;81.32
72650;SHT31;61467;50.674;4.618;2023-12-07T03:41:50;4.25;80.72
72650;SHT31;61467;50.674;4.618;2023-12-07T03:44:17;4.34;80.86
72650;SHT31;61467;50.674;4.618;2023-12-07T03:46:44;4.01;81.39
72650;SHT31;61467;50.674;4.618;2023-12-07T03:49:11;4.34;81.15
72650;SHT31;61467;50.674;4.618;2023-12-07T03:51:39;4.25;81.21
72650;SHT31;61467;50.674;4.618;2023-12-07T03:54:06;4.21;81.33
72650;SHT31;61467;50.674;4.618;2023-12-07T03:56:33;4.37;81.01
72650;SHT31;61467;50.674;4.618;2023-12-07T03:59:00;4.35;80.90
72650;SHT31;61467;50.674;4.618;2023-12-07T04:01:27;4.35;80.84
72650;SHT31;61467;50.674;4.618;2023-12-07T04:03:55;4.44;80.49
72650;SHT31;61467;50.674;4.618;2023-12-07T04:06:23;4.42;80.60
72650;SHT31;61467;50.674;4.618;2023-12-07T04:08:52;4.45;80.18
72650;SHT31;61467;50.674;4.618;2023-12-07T04:11:19;4.44;80.50
72650;SHT31;61467;50.674;4.618;2023-12-07T04:13:47;4.28;80.42
72650;SHT31;61467;50.674;4.618;2023-12-07T04:16:14;4.42;80.30
72650;SHT31;61467;50.674;4.618;2023-12-07T04:18:41;4.34;80.53
72650;SHT31;61467;50.674;4.618;2023-12-07T04:21:08;4.42;80.54
72650;SHT31;61467;50.674;4.618;2023-12-07T04:23:35;4.45;80.58
72650;SHT31;61467;50.674;4.618;2023-12-07T04:26:04;4.49;80.33
72650;SHT31;61467;50.674;4.618;2023-12-07T04:28:31;4.46;79.95
72650;SHT31;61467;50.674;4.618;2023-12-07T04:30:57;4.52;79.92
72650;SHT31;61467;50.674;4.618;2023-12-07T04:33:24;4.41;79.67
72650;SHT31;61467;50.674;4.618;2023-12-07T04:35:51;4.52;79.69
72650;SHT31;61467;50.674;4.618;2023-12-07T04:38:18;4.58;79.91
72650;SHT31;61467;50.674;4.618;2023-12-07T04:40:45;4.59;79.54
72650;SHT31;61467;50.674;4.618;2023-12-07T04:43:13;4.55;79.59
72650;SHT31;61467;50.674;4.618;2023-12-07T04:45:40;4.56;79.35
72650;SHT31;61467;50.674;4.618;2023-12-07T04:48:07;4.55;79.47
72650;SHT31;61467;50.674;4.618;2023-12-07T04:50:33;4.45;79.40
72650;SHT31;61467;50.674;4.618;2023-12-07T04:53:00;4.34;80.01
72650;SHT31;61467;50.674;4.618;2023-12-07T04:55:27;4.49;79.82
72650;SHT31;61467;50.674;4.618;2023-12-07T04:57:54;4.55;79.36
72650;SHT31;61467;50.674;4.618;2023-12-07T05:00:22;4.51;79.60
72650;SHT31;61467;50.674;4.618;2023-12-07T05:02:51;4.48;79.40
72650;SHT31;61467;50.674;4.618;2023-12-07T05:05:18;4.45;79.66
72650;SHT31;61467;50.674;4.618;2023-12-07T05:07:44;4.48;79.75
72650;SHT31;61467;50.674;4.618;2023-12-07T05:10:11;4.38;79.74
72650;SHT31;61467;50.674;4.618;2023-12-07T05:12:38;4.46;79.71
72650;SHT31;61467;50.674;4.618;2023-12-07T05:15:06;4.48;79.77
72650;SHT31;61467;50.674;4.618;2023-12-07T05:17:35;4.35;79.90
72650;SHT31;61467;50.674;4.618;2023-12-07T05:20:05;4.27;80.13
72650;SHT31;61467;50.674;4.618;2023-12-07T05:22:32;4.41;80.14
72650;SHT31;61467;50.674;4.618;2023-12-07T05:24:59;4.40;80.12
72650;SHT31;61467;50.674;4.618;2023-12-07T05:27:26;4.40;80.10
72650;SHT31;61467;50.674;4.618;2023-12-07T05:29:53;4.34;80.18
72650;SHT31;61467;50.674;4.618;2023-12-07T05:32:20;4.15;80.36
72650;SHT31;61467;50.674;4.618;2023-12-07T05:34:55;4.30;80.42
72650;SHT31;61467;50.674;4.618;2023-12-07T05:37:22;4.27;80.56
72650;SHT31;61467;50.674;4.618;2023-12-07T05:39:49;4.27;80.73
72650;SHT31;61467;50.674;4.618;2023-12-07T05:42:16;4.35;80.70
72650;SHT31;61467;50.674;4.618;2023-12-07T05:44:44;4.52;79.88
72650;SHT31;61467;50.674;4.618;2023-12-07T05:47:11;4.48;79.81
72650;SHT31;61467;50.674;4.618;2023-12-07T05:49:38;4.46;79.73
72650;SHT31;61467;50.674;4.618;2023-12-07T05:52:06;4.40;80.03
72650;SHT31;61467;50.674;4.618;2023-12-07T05:54:33;4.46;79.78
72650;SHT31;61467;50.674;4.618;2023-12-07T05:57:00;4.46;79.83
72650;SHT31;61467;50.674;4.618;2023-12-07T05:59:27;4.32;80.16
72650;SHT31;61467;50.674;4.618;2023-12-07T06:01:54;4.41;79.84
72650;SHT31;61467;50.674;4.618;2023-12-07T06:04:21;4.37;79.87
72650;SHT31;61467;50.674;4.618;2023-12-07T06:06:48;4.49;79.69
72650;SHT31;61467;50.674;4.618;2023-12-07T06:09:17;4.48;79.72
72650;SHT31;61467;50.674;4.618;2023-12-07T06:11:43;4.45;79.60
72650;SHT31;61467;50.674;4.618;2023-12-07T06:14:10;4.48;79.37
72650;SHT31;61467;50.674;4.618;2023-12-07T06:16:37;4.42;79.54
72650;SHT31;61467;50.674;4.618;2023-12-07T06:19:04;4.46;79.44
72650;SHT31;61467;50.674;4.618;2023-12-07T06:21:31;4.34;79.67
72650;SHT31;61467;50.674;4.618;2023-12-07T06:23:58;4.28;80.06
72650;SHT31;61467;50.674;4.618;2023-12-07T06:26:28;4.37;80.11
72650;SHT31;61467;50.674;4.618;2023-12-07T06:28:55;4.41;79.66
72650;SHT31;61467;50.674;4.618;2023-12-07T06:31:21;4.44;79.47
72650;SHT31;61467;50.674;4.618;2023-12-07T06:33:48;4.48;79.32
72650;SHT31;61467;50.674;4.618;2023-12-07T06:36:18;4.41;79.49
72650;SHT31;61467;50.674;4.618;2023-12-07T06:38:46;4.32;79.40
72650;SHT31;61467;50.674;4.618;2023-12-07T06:41:14;4.34;79.87
72650;SHT31;61467;50.674;4.618;2023-12-07T06:43:42;4.31;79.65
72650;SHT31;61467;50.674;4.618;2023-12-07T06:46:10;4.37;79.51
72650;SHT31;61467;50.674;4.618;2023-12-07T06:48:37;4.28;79.91
72650;SHT31;61467;50.674;4.618;2023-12-07T06:51:04;4.38;79.64
72650;SHT31;61467;50.674;4.618;2023-12-07T06:53:31;4.34;79.57
72650;SHT31;61467;50.674;4.618;2023-12-07T06:55:58;4.44;80.40
72650;SHT31;61467;50.674;4.618;2023-12-07T06:58:25;4.44;79.20
72650;SHT31;61467;50.674;4.618;2023-12-07T07:00:53;4.38;79.24
72650;SHT31;61467;50.674;4.618;2023-12-07T07:03:20;4.32;79.25
72650;SHT31;61467;50.674;4.618;2023-12-07T07:05:46;4.38;79.25
72650;SHT31;61467;50.674;4.618;2023-12-07T07:08:13;4.41;79.11
72650;SHT31;61467;50.674;4.618;2023-12-07T07:10:40;4.44;79.20
72650;SHT31;61467;50.674;4.618;2023-12-07T07:13:07;4.37;79.14
72650;SHT31;61467;50.674;4.618;2023-12-07T07:15:33;4.37;79.19
72650;SHT31;61467;50.674;4.618;2023-12-07T07:18:02;4.38;79.15
72650;SHT31;61467;50.674;4.618;2023-12-07T07:20:29;4.37;79.26
72650;SHT31;61467;50.674;4.618;2023-12-07T07:22:56;4.32;79.38
72650;SHT31;61467;50.674;4.618;2023-12-07T07:25:23;4.15;79.74
72650;SHT31;61467;50.674;4.618;2023-12-07T07:27:50;4.01;79.76
72650;SHT31;61467;50.674;4.618;2023-12-07T07:30:17;4.15;79.97
72650;SHT31;61467;50.674;4.618;2023-12-07T07:32:44;4.18;79.82
72650;SHT31;61467;50.674;4.618;2023-12-07T07:35:12;4.20;79.82
72650;SHT31;61467;50.674;4.618;2023-12-07T07:37:39;4.15;79.96
72650;SHT31;61467;50.674;4.618;2023-12-07T07:40:07;4.14;79.78
72650;SHT31;61467;50.674;4.618;2023-12-07T07:42:37;4.25;79.87
72650;SHT31;61467;50.674;4.618;2023-12-07T07:45:04;4.24;79.76
72650;SHT31;61467;50.674;4.618;2023-12-07T07:47:32;4.17;79.72
72650;SHT31;61467;50.674;4.618;2023-12-07T07:49:59;4.18;79.79
72650;SHT31;61467;50.674;4.618;2023-12-07T07:52:34;4.17;79.92
72650;SHT31;61467;50.674;4.618;2023-12-07T07:55:02;4.10;80.07
72650;SHT31;61467;50.674;4.618;2023-12-07T07:57:31;4.15;80.18
72650;SHT31;61467;50.674;4.618;2023-12-07T07:59:58;4.20;80.00
72650;SHT31;61467;50.674;4.618;2023-12-07T08:02:25;4.32;79.76
72650;SHT31;61467;50.674;4.618;2023-12-07T08:04:52;4.41;79.35
72650;SHT31;61467;50.674;4.618;2023-12-07T08:07:19;4.38;79.38
72650;SHT31;61467;50.674;4.618;2023-12-07T08:09:47;4.49;79.19
72650;SHT31;61467;50.674;4.618;2023-12-07T08:12:14;4.46;79.06
72650;SHT31;61467;50.674;4.618;2023-12-07T08:14:43;4.42;79.45
72650;SHT31;61467;50.674;4.618;2023-12-07T08:17:11;4.52;79.05
72650;SHT31;61467;50.674;4.618;2023-12-07T08:19:38;4.55;79.00
72650;SHT31;61467;50.674;4.618;2023-12-07T08:22:06;4.46;79.35
72650;SHT31;61467;50.674;4.618;2023-12-07T08:24:33;4.51;79.32
72650;SHT31;61467;50.674;4.618;2023-12-07T08:27:02;4.42;79.43
72650;SHT31;61467;50.674;4.618;2023-12-07T08:29:30;4.45;79.41
72650;SHT31;61467;50.674;4.618;2023-12-07T08:31:57;4.61;79.20
72650;SHT31;61467;50.674;4.618;2023-12-07T08:34:24;4.66;79.24
72650;SHT31;61467;50.674;4.618;2023-12-07T08:36:51;4.73;79.05
72650;SHT31;61467;50.674;4.618;2023-12-07T08:39:18;4.66;79.05
72650;SHT31;61467;50.674;4.618;2023-12-07T08:41:44;4.76;79.05
72650;SHT31;61467;50.674;4.618;2023-12-07T08:44:13;4.72;78.79
72650;SHT31;61467;50.674;4.618;2023-12-07T08:46:39;4.75;78.88
72650;SHT31;61467;50.674;4.618;2023-12-07T08:49:09;4.80;78.95
72650;SHT31;61467;50.674;4.618;2023-12-07T08:51:36;4.89;78.90
72650;SHT31;61467;50.674;4.618;2023-12-07T08:54:02;4.89;78.43
72650;SHT31;61467;50.674;4.618;2023-12-07T08:56:31;4.87;78.64
72650;SHT31;61467;50.674;4.618;2023-12-07T08:58:58;4.89;78.50
72650;SHT31;61467;50.674;4.618;2023-12-07T09:01:28;4.92;78.62
72650;SHT31;61467;50.674;4.618;2023-12-07T09:03:58;4.92;78.62
72650;SHT31;61467;50.674;4.618;2023-12-07T09:06:25;4.94;78.82
72650;SHT31;61467;50.674;4.618;2023-12-07T09:08:52;5.13;78.26
72650;SHT31;61467;50.674;4.618;2023-12-07T09:11:20;4.96;78.25
72650;SHT31;61467;50.674;4.618;2023-12-07T09:13:47;4.97;78.13
72650;SHT31;61467;50.674;4.618;2023-12-07T09:16:14;5.00;78.50
72650;SHT31;61467;50.674;4.618;2023-12-07T09:18:42;4.94;78.93
72650;SHT31;61467;50.674;4.618;2023-12-07T09:21:10;4.99;78.36
72650;SHT31;61467;50.674;4.618;2023-12-07T09:23:37;5.09;78.24
72650;SHT31;61467;50.674;4.618;2023-12-07T09:26:04;5.10;78.50
72650;SHT31;61467;50.674;4.618;2023-12-07T09:28:31;5.17;78.00
72650;SHT31;61467;50.674;4.618;2023-12-07T09:30:58;5.14;78.02
72650;SHT31;61467;50.674;4.618;2023-12-07T09:33:25;5.14;77.92
72650;SHT31;61467;50.674;4.618;2023-12-07T09:35:53;5.21;77.79
72650;SHT31;61467;50.674;4.618;2023-12-07T09:38:20;5.21;77.54
72650;SHT31;61467;50.674;4.618;2023-12-07T09:40:51;5.27;77.59
72650;SHT31;61467;50.674;4.618;2023-12-07T09:43:18;5.27;77.82
72650;SHT31;61467;50.674;4.618;2023-12-07T09:45:45;5.27;77.38
72650;SHT31;61467;50.674;4.618;2023-12-07T09:48:13;5.31;77.44
72650;SHT31;61467;50.674;4.618;2023-12-07T09:50:47;5.28;77.27
72650;SHT31;61467;50.674;4.618;2023-12-07T09:53:16;5.31;77.66
72650;SHT31;61467;50.674;4.618;2023-12-07T09:55:43;5.42;77.41
72650;SHT31;61467;50.674;4.618;2023-12-07T09:58:11;5.37;77.20
72650;SHT31;61467;50.674;4.618;2023-12-07T10:00:38;5.50;77.25
72650;SHT31;61467;50.674;4.618;2023-12-07T10:03:05;5.58;77.34
72650;SHT31;61467;50.674;4.618;2023-12-07T10:05:33;5.73;77.10
72650;SHT31;61467;50.674;4.618;2023-12-07T10:08:00;5.82;76.66
72650;SHT31;61467;50.674;4.618;2023-12-07T10:10:29;5.92;76.06
72650;SHT31;61467;50.674;4.618;2023-12-07T10:12:58;5.81;76.16
72650;SHT31;61467;50.674;4.618;2023-12-07T10:15:26;5.75;75.72
72650;SHT31;61467;50.674;4.618;2023-12-07T10:17:55;5.65;75.88
72650;SHT31;61467;50.674;4.618;2023-12-07T10:20:23;5.73;75.97
72650;SHT31;61467;50.674;4.618;2023-12-07T10:23:02;5.72;76.06
72650;SHT31;61467;50.674;4.618;2023-12-07T10:25:31;5.76;76.00
72650;SHT31;61467;50.674;4.618;2023-12-07T10:27:58;5.88;75.87
72650;SHT31;61467;50.674;4.618;2023-12-07T10:30:26;5.79;75.46
72650;SHT31;61467;50.674;4.618;2023-12-07T10:32:53;5.75;76.13
72650;SHT31;61467;50.674;4.618;2023-12-07T10:35:21;5.79;75.75
72650;SHT31;61467;50.674;4.618;2023-12-07T10:37:48;5.95;76.07
72650;SHT31;61467;50.674;4.618;2023-12-07T10:40:15;6.10;75.28
72650;SHT31;61467;50.674;4.618;2023-12-07T10:42:48;5.99;75.14
72650;SHT31;61467;50.674;4.618;2023-12-07T10:45:15;6.01;74.96
72650;SHT31;61467;50.674;4.618;2023-12-07T10:47:44;6.13;74.80
72650;SHT31;61467;50.674;4.618;2023-12-07T10:50:13;6.13;75.09
72650;SHT31;61467;50.674;4.618;2023-12-07T10:52:45;6.17;74.80
72650;SHT31;61467;50.674;4.618;2023-12-07T10:55:16;6.23;74.21
72650;SHT31;61467;50.674;4.618;2023-12-07T10:57:46;6.23;73.88
72650;SHT31;61467;50.674;4.618;2023-12-07T11:00:14;6.26;73.90
72650;SHT31;61467;50.674;4.618;2023-12-07T11:02:42;6.29;73.58
72650;SHT31;61467;50.674;4.618;2023-12-07T11:05:11;6.38;73.20
72650;SHT31;61467;50.674;4.618;2023-12-07T11:07:45;6.47;73.22
72650;SHT31;61467;50.674;4.618;2023-12-07T11:10:20;6.38;72.73
72650;SHT31;61467;50.674;4.618;2023-12-07T11:12:56;6.44;72.74
72650;SHT31;61467;50.674;4.618;2023-12-07T11:15:25;6.54;71.89
72650;SHT31;61467;50.674;4.618;2023-12-07T11:17:54;6.51;71.91
72650;SHT31;61467;50.674;4.618;2023-12-07T11:20:22;6.41;71.60
72650;SHT31;61467;50.674;4.618;2023-12-07T11:22:59;6.51;71.94
72650;SHT31;61467;50.674;4.618;2023-12-07T11:25:26;6.64;70.83
72650;SHT31;61467;50.674;4.618;2023-12-07T11:28:02;6.61;70.48
72650;SHT31;61467;50.674;4.618;2023-12-07T11:30:30;6.65;70.75
72650;SHT31;61467;50.674;4.618;2023-12-07T11:32:57;6.60;70.06
72650;SHT31;61467;50.674;4.618;2023-12-07T11:35:24;6.53;69.84
72650;SHT31;61467;50.674;4.618;2023-12-07T11:38:05;6.43;68.86
72650;SHT31;61467;50.674;4.618;2023-12-07T11:40:35;6.23;69.86
72650;SHT31;61467;50.674;4.618;2023-12-07T11:43:03;6.23;70.17
72650;SHT31;61467;50.674;4.618;2023-12-07T11:45:40;6.51;69.88
72650;SHT31;61467;50.674;4.618;2023-12-07T11:48:11;6.33;69.79
72650;SHT31;61467;50.674;4.618;2023-12-07T11:50:58;6.37;69.65
72650;SHT31;61467;50.674;4.618;2023-12-07T11:53:25;6.32;69.26
72650;SHT31;61467;50.674;4.618;2023-12-07T11:55:52;6.58;69.23
72650;SHT31;61467;50.674;4.618;2023-12-07T11:58:20;6.38;69.23
72650;SHT31;61467;50.674;4.618;2023-12-07T12:00:47;6.40;69.67
72650;SHT31;61467;50.674;4.618;2023-12-07T12:03:14;6.51;69.15
72650;SHT31;61467;50.674;4.618;2023-12-07T12:05:41;6.48;67.50
72650;SHT31;61467;50.674;4.618;2023-12-07T12:08:09;6.17;68.59
72650;SHT31;61467;50.674;4.618;2023-12-07T12:10:37;6.38;68.56
72650;SHT31;61467;50.674;4.618;2023-12-07T12:13:04;6.53;68.04
72650;SHT31;61467;50.674;4.618;2023-12-07T12:15:33;6.26;68.78
72650;SHT31;61467;50.674;4.618;2023-12-07T12:18:01;6.27;67.67
72650;SHT31;61467;50.674;4.618;2023-12-07T12:20:29;6.43;67.84
72650;SHT31;61467;50.674;4.618;2023-12-07T12:22:57;6.41;68.58
72650;SHT31;61467;50.674;4.618;2023-12-07T12:25:25;6.55;67.95
72650;SHT31;61467;50.674;4.618;2023-12-07T12:27:54;6.63;66.99
72650;SHT31;61467;50.674;4.618;2023-12-07T12:30:22;6.57;67.28
72650;SHT31;61467;50.674;4.618;2023-12-07T12:32:51;6.51;67.62
72650;SHT31;61467;50.674;4.618;2023-12-07T12:35:18;6.32;66.95
72650;SHT31;61467;50.674;4.618;2023-12-07T12:37:45;6.36;67.36
72650;SHT31;61467;50.674;4.618;2023-12-07T12:40:15;6.37;67.47
72650;SHT31;61467;50.674;4.618;2023-12-07T12:42:45;6.41;67.75
72650;SHT31;61467;50.674;4.618;2023-12-07T12:45:13;6.48;66.55
72650;SHT31;61467;50.674;4.618;2023-12-07T12:47:40;6.55;67.00
72650;SHT31;61467;50.674;4.618;2023-12-07T12:50:10;6.54;66.65
72650;SHT31;61467;50.674;4.618;2023-12-07T12:52:37;6.53;67.10
72650;SHT31;61467;50.674;4.618;2023-12-07T12:55:09;6.58;67.25
72650;SHT31;61467;50.674;4.618;2023-12-07T12:57:37;6.61;66.79
72650;SHT31;61467;50.674;4.618;2023-12-07T13:00:05;6.61;66.96
72650;SHT31;61467;50.674;4.618;2023-12-07T13:02:33;6.57;66.87
72650;SHT31;61467;50.674;4.618;2023-12-07T13:05:00;6.57;66.30
72650;SHT31;61467;50.674;4.618;2023-12-07T13:07:29;6.47;65.76
72650;SHT31;61467;50.674;4.618;2023-12-07T13:09:56;6.44;66.06
72650;SHT31;61467;50.674;4.618;2023-12-07T13:12:23;6.40;66.11
72650;SHT31;61467;50.674;4.618;2023-12-07T13:14:53;6.45;66.28
72650;SHT31;61467;50.674;4.618;2023-12-07T13:17:22;6.61;66.13
72650;SHT31;61467;50.674;4.618;2023-12-07T13:19:49;6.70;65.53
72650;SHT31;61467;50.674;4.618;2023-12-07T13:22:16;6.64;66.09
72650;SHT31;61467;50.674;4.618;2023-12-07T13:24:47;6.63;65.50
72650;SHT31;61467;50.674;4.618;2023-12-07T13:27:15;6.74;65.50
72650;SHT31;61467;50.674;4.618;2023-12-07T13:29:42;6.57;66.23
72650;SHT31;61467;50.674;4.618;2023-12-07T13:32:08;6.67;65.60
72650;SHT31;61467;50.674;4.618;2023-12-07T13:34:35;6.72;65.75
72650;SHT31;61467;50.674;4.618;2023-12-07T13:37:03;6.57;65.35
72650;SHT31;61467;50.674;4.618;2023-12-07T13:39:30;6.71;65.65
72650;SHT31;61467;50.674;4.618;2023-12-07T13:41:59;6.74;65.58
72650;SHT31;61467;50.674;4.618;2023-12-07T13:44:25;6.72;65.69
72650;SHT31;61467;50.674;4.618;2023-12-07T13:46:52;6.78;64.89
72650;SHT31;61467;50.674;4.618;2023-12-07T13:49:20;6.78;65.58
72650;SHT31;61467;50.674;4.618;2023-12-07T13:51:47;6.80;66.02
72650;SHT31;61467;50.674;4.618;2023-12-07T13:54:14;6.81;65.57
72650;SHT31;61467;50.674;4.618;2023-12-07T13:56:41;6.68;65.61
72650;SHT31;61467;50.674;4.618;2023-12-07T13:59:10;6.72;66.10
72650;SHT31;61467;50.674;4.618;2023-12-07T14:01:38;6.68;65.64
72650;SHT31;61467;50.674;4.618;2023-12-07T14:04:06;6.71;65.54
72650;SHT31;61467;50.674;4.618;2023-12-07T14:06:33;6.54;66.14
72650;SHT31;61467;50.674;4.618;2023-12-07T14:09:01;6.61;65.86
72650;SHT31;61467;50.674;4.618;2023-12-07T14:11:28;6.61;66.03
72650;SHT31;61467;50.674;4.618;2023-12-07T14:13:55;6.72;66.22
72650;SHT31;61467;50.674;4.618;2023-12-07T14:16:23;6.74;65.57
72650;SHT31;61467;50.674;4.618;2023-12-07T14:18:50;6.71;65.48
72650;SHT31;61467;50.674;4.618;2023-12-07T14:21:19;6.78;65.35
72650;SHT31;61467;50.674;4.618;2023-12-07T14:23:47;6.71;65.26
72650;SHT31;61467;50.674;4.618;2023-12-07T14:26:14;6.71;65.81
72650;SHT31;61467;50.674;4.618;2023-12-07T14:28:41;6.70;65.39
72650;SHT31;61467;50.674;4.618;2023-12-07T14:31:08;6.64;65.46
72650;SHT31;61467;50.674;4.618;2023-12-07T14:33:43;6.67;65.36
72650;SHT31;61467;50.674;4.618;2023-12-07T14:36:10;6.71;65.32
72650;SHT31;61467;50.674;4.618;2023-12-07T14:38:38;6.74;65.05
72650;SHT31;61467;50.674;4.618;2023-12-07T14:41:06;6.65;64.91
72650;SHT31;61467;50.674;4.618;2023-12-07T14:43:33;6.58;65.52
72650;SHT31;61467;50.674;4.618;2023-12-07T14:46:01;6.63;65.37
72650;SHT31;61467;50.674;4.618;2023-12-07T14:48:30;6.57;65.44
72650;SHT31;61467;50.674;4.618;2023-12-07T14:50:58;6.53;64.93
72650;SHT31;61467;50.674;4.618;2023-12-07T14:53:26;6.47;66.06
72650;SHT31;61467;50.674;4.618;2023-12-07T14:55:53;6.55;64.94
72650;SHT31;61467;50.674;4.618;2023-12-07T14:58:23;6.60;65.21
72650;SHT31;61467;50.674;4.618;2023-12-07T15:00:50;6.65;65.11
72650;SHT31;61467;50.674;4.618;2023-12-07T15:03:17;6.61;65.30
72650;SHT31;61467;50.674;4.618;2023-12-07T15:05:44;6.67;65.01
72650;SHT31;61467;50.674;4.618;2023-12-07T15:08:12;6.67;64.79
72650;SHT31;61467;50.674;4.618;2023-12-07T15:10:41;6.67;64.42
72650;SHT31;61467;50.674;4.618;2023-12-07T15:13:08;6.53;65.10
72650;SHT31;61467;50.674;4.618;2023-12-07T15:15:35;6.40;65.66
72650;SHT31;61467;50.674;4.618;2023-12-07T15:18:02;6.41;65.47
72650;SHT31;61467;50.674;4.618;2023-12-07T15:20:29;6.33;64.86
72650;SHT31;61467;50.674;4.618;2023-12-07T15:22:56;6.32;65.71
72650;SHT31;61467;50.674;4.618;2023-12-07T15:25:24;6.48;64.66
72650;SHT31;61467;50.674;4.618;2023-12-07T15:27:54;6.50;64.12
72650;SHT31;61467;50.674;4.618;2023-12-07T15:30:21;6.40;64.89
72650;SHT31;61467;50.674;4.618;2023-12-07T15:32:49;6.27;64.41
72650;SHT31;61467;50.674;4.618;2023-12-07T15:35:16;6.17;64.58
72650;SHT31;61467;50.674;4.618;2023-12-07T15:37:43;6.38;64.80
72650;SHT31;61467;50.674;4.618;2023-12-07T15:40:10;6.32;64.26
72650;SHT31;61467;50.674;4.618;2023-12-07T15:42:39;6.37;64.11
72650;SHT31;61467;50.674;4.618;2023-12-07T15:45:07;6.36;64.11
72650;SHT31;61467;50.674;4.618;2023-12-07T15:47:35;6.34;63.98
72650;SHT31;61467;50.674;4.618;2023-12-07T15:50:02;6.19;64.43
72650;SHT31;61467;50.674;4.618;2023-12-07T15:52:29;6.34;63.81